sensor_id;sensor_type;location;lat;lon;timestamp;temperature;humidity
45969;DHT22;31676;40.444;-3.668;2022-08-21T00:00:05;27.80;67.20
45969;DHT22;31676;40.444;-3.668;2022-08-21T00:02:31;27.80;67.20
45969;DHT22;31676;40.444;-3.668;2022-08-21T00:04:57;27.80;67.20
45969;DHT22;31676;40.444;-3.668;2022-08-21T00:07:23;27.80;67.20
45969;DHT22;31676;40.444;-3.668;2022-08-21T00:09:49;27.80;67.20
45969;DHT22;31676;40.444;-3.668;2022-08-21T00:12:15;27.80;67.20
45969;DHT22;31676;40.444;-3.668;2022-08-21T00:14:40;27.80;67.20
45969;DHT22;31676;40.444;-3.668;2022-08-21T00:17:06;27.80;67.20
45969;DHT22;31676;40.444;-3.668;2022-08-21T00:19:32;27.80;67.20
45969;DHT22;31676;40.444;-3.668;2022-08-21T00:21:58;27.80;67.30
45969;DHT22;31676;40.444;-3.668;2022-08-21T00:24:24;27.80;67.20
45969;DHT22;31676;40.444;-3.668;2022-08-21T00:26:50;27.80;67.20
45969;DHT22;31676;40.444;-3.668;2022-08-21T00:29:16;27.80;67.20
45969;DHT22;31676;40.444;-3.668;2022-08-21T00:31:42;27.80;67.20
45969;DHT22;31676;40.444;-3.668;2022-08-21T00:34:08;27.80;67.30
45969;DHT22;31676;40.444;-3.668;2022-08-21T00:36:36;27.80;67.30
45969;DHT22;31676;40.444;-3.668;2022-08-21T00:39:03;27.80;67.30
45969;DHT22;31676;40.444;-3.668;2022-08-21T00:41:29;27.80;67.30
45969;DHT22;31676;40.444;-3.668;2022-08-21T00:43:55;27.80;67.30
45969;DHT22;31676;40.444;-3.668;2022-08-21T00:46:21;27.80;67.30
45969;DHT22;31676;40.444;-3.668;2022-08-21T00:48:46;27.80;67.30
45969;DHT22;31676;40.444;-3.668;2022-08-21T00:51:17;27.80;67.60
45969;DHT22;31676;40.444;-3.668;2022-08-21T00:53:48;27.80;67.30
45969;DHT22;31676;40.444;-3.668;2022-08-21T00:56:17;27.80;67.30
45969;DHT22;31676;40.444;-3.668;2022-08-21T00:58:43;27.80;67.30
45969;DHT22;31676;40.444;-3.668;2022-08-21T01:01:08;27.80;67.30
45969;DHT22;31676;40.444;-3.668;2022-08-21T01:03:35;27.80;67.30
45969;DHT22;31676;40.444;-3.668;2022-08-21T01:06:02;27.80;67.30
45969;DHT22;31676;40.444;-3.668;2022-08-21T01:08:29;27.80;67.30
45969;DHT22;31676;40.444;-3.668;2022-08-21T01:10:55;27.80;67.30
45969;DHT22;31676;40.444;-3.668;2022-08-21T01:13:22;27.80;67.30
45969;DHT22;31676;40.444;-3.668;2022-08-21T01:15:50;27.80;67.40
45969;DHT22;31676;40.444;-3.668;2022-08-21T01:18:18;27.70;67.30
45969;DHT22;31676;40.444;-3.668;2022-08-21T01:23:11;27.70;67.30
45969;DHT22;31676;40.444;-3.668;2022-08-21T01:25:37;27.80;67.30
45969;DHT22;31676;40.444;-3.668;2022-08-21T01:28:06;27.70;67.30
45969;DHT22;31676;40.444;-3.668;2022-08-21T01:30:33;27.80;67.40
45969;DHT22;31676;40.444;-3.668;2022-08-21T01:33:00;27.80;67.40
45969;DHT22;31676;40.444;-3.668;2022-08-21T01:35:26;27.80;67.40
45969;DHT22;31676;40.444;-3.668;2022-08-21T01:37:51;27.80;67.40
45969;DHT22;31676;40.444;-3.668;2022-08-21T01:40:17;27.80;67.40
45969;DHT22;31676;40.444;-3.668;2022-08-21T01:42:44;27.70;67.30
45969;DHT22;31676;40.444;-3.668;2022-08-21T01:45:10;27.80;67.40
45969;DHT22;31676;40.444;-3.668;2022-08-21T01:47:36;27.70;67.30
45969;DHT22;31676;40.444;-3.668;2022-08-21T01:50:06;27.70;67.30
45969;DHT22;31676;40.444;-3.668;2022-08-21T01:52:32;27.70;67.30
45969;DHT22;31676;40.444;-3.668;2022-08-21T01:54:57;27.80;67.40
45969;DHT22;31676;40.444;-3.668;2022-08-21T01:57:23;27.80;68.10
45969;DHT22;31676;40.444;-3.668;2022-08-21T01:59:49;27.80;67.40
45969;DHT22;31676;40.444;-3.668;2022-08-21T02:02:15;27.70;67.30
45969;DHT22;31676;40.444;-3.668;2022-08-21T02:04:40;27.80;67.40
45969;DHT22;31676;40.444;-3.668;2022-08-21T02:07:06;27.70;67.30
45969;DHT22;31676;40.444;-3.668;2022-08-21T02:09:32;27.80;67.40
45969;DHT22;31676;40.444;-3.668;2022-08-21T02:11:59;27.70;67.40
45969;DHT22;31676;40.444;-3.668;2022-08-21T02:14:24;27.80;67.40
45969;DHT22;31676;40.444;-3.668;2022-08-21T02:16:50;27.70;67.40
45969;DHT22;31676;40.444;-3.668;2022-08-21T02:19:16;27.70;67.40
45969;DHT22;31676;40.444;-3.668;2022-08-21T02:21:42;27.70;67.40
45969;DHT22;31676;40.444;-3.668;2022-08-21T02:24:08;27.70;67.40
45969;DHT22;31676;40.444;-3.668;2022-08-21T02:26:34;27.70;67.40
45969;DHT22;31676;40.444;-3.668;2022-08-21T02:29:00;27.70;67.40
45969;DHT22;31676;40.444;-3.668;2022-08-21T02:31:26;27.70;67.40
45969;DHT22;31676;40.444;-3.668;2022-08-21T02:33:51;27.70;67.40
45969;DHT22;31676;40.444;-3.668;2022-08-21T02:36:17;27.70;67.40
45969;DHT22;31676;40.444;-3.668;2022-08-21T02:38:43;27.70;67.40
45969;DHT22;31676;40.444;-3.668;2022-08-21T02:41:10;27.70;67.50
45969;DHT22;31676;40.444;-3.668;2022-08-21T02:43:36;27.70;67.40
45969;DHT22;31676;40.444;-3.668;2022-08-21T02:46:02;27.70;67.50
45969;DHT22;31676;40.444;-3.668;2022-08-21T02:48:29;27.70;67.40
45969;DHT22;31676;40.444;-3.668;2022-08-21T02:51:17;27.70;67.40
45969;DHT22;31676;40.444;-3.668;2022-08-21T02:53:43;27.70;67.40
45969;DHT22;31676;40.444;-3.668;2022-08-21T02:56:09;27.70;68.10
45969;DHT22;31676;40.444;-3.668;2022-08-21T02:58:40;27.70;67.50
45969;DHT22;31676;40.444;-3.668;2022-08-21T03:01:06;27.70;67.50
45969;DHT22;31676;40.444;-3.668;2022-08-21T03:03:36;27.70;67.50
45969;DHT22;31676;40.444;-3.668;2022-08-21T03:06:02;27.70;67.50
45969;DHT22;31676;40.444;-3.668;2022-08-21T03:08:28;27.70;67.50
45969;DHT22;31676;40.444;-3.668;2022-08-21T03:10:54;27.70;67.50
45969;DHT22;31676;40.444;-3.668;2022-08-21T03:13:20;27.70;67.50
45969;DHT22;31676;40.444;-3.668;2022-08-21T03:15:46;27.70;67.50
45969;DHT22;31676;40.444;-3.668;2022-08-21T03:18:12;27.70;67.50
45969;DHT22;31676;40.444;-3.668;2022-08-21T03:20:39;27.70;67.50
45969;DHT22;31676;40.444;-3.668;2022-08-21T03:23:05;27.70;67.50
45969;DHT22;31676;40.444;-3.668;2022-08-21T03:25:32;27.70;67.50
45969;DHT22;31676;40.444;-3.668;2022-08-21T03:27:58;27.70;67.50
45969;DHT22;31676;40.444;-3.668;2022-08-21T03:30:24;27.70;67.50
45969;DHT22;31676;40.444;-3.668;2022-08-21T03:32:50;27.70;67.50
45969;DHT22;31676;40.444;-3.668;2022-08-21T03:35:16;27.70;67.50
45969;DHT22;31676;40.444;-3.668;2022-08-21T03:37:42;27.70;67.50
45969;DHT22;31676;40.444;-3.668;2022-08-21T03:40:08;27.70;67.50
45969;DHT22;31676;40.444;-3.668;2022-08-21T03:42:34;27.70;67.50
45969;DHT22;31676;40.444;-3.668;2022-08-21T03:45:00;27.70;67.50
45969;DHT22;31676;40.444;-3.668;2022-08-21T03:47:26;27.70;67.50
45969;DHT22;31676;40.444;-3.668;2022-08-21T03:49:51;27.70;67.50
45969;DHT22;31676;40.444;-3.668;2022-08-21T03:52:17;27.70;67.50
45969;DHT22;31676;40.444;-3.668;2022-08-21T03:54:43;27.60;67.40
45969;DHT22;31676;40.444;-3.668;2022-08-21T03:57:09;27.70;67.50
45969;DHT22;31676;40.444;-3.668;2022-08-21T03:59:36;27.70;67.50
45969;DHT22;31676;40.444;-3.668;2022-08-21T04:02:03;27.70;67.50
45969;DHT22;31676;40.444;-3.668;2022-08-21T04:04:30;27.60;67.40
45969;DHT22;31676;40.444;-3.668;2022-08-21T04:06:56;27.70;67.50
45969;DHT22;31676;40.444;-3.668;2022-08-21T04:09:22;27.70;67.50
45969;DHT22;31676;40.444;-3.668;2022-08-21T04:11:48;27.60;67.40
45969;DHT22;31676;40.444;-3.668;2022-08-21T04:14:14;27.70;67.50
45969;DHT22;31676;40.444;-3.668;2022-08-21T04:16:41;27.70;67.50
45969;DHT22;31676;40.444;-3.668;2022-08-21T04:19:07;27.70;67.50
45969;DHT22;31676;40.444;-3.668;2022-08-21T04:21:33;27.60;67.50
45969;DHT22;31676;40.444;-3.668;2022-08-21T04:23:58;27.60;67.40
45969;DHT22;31676;40.444;-3.668;2022-08-21T04:26:25;27.60;67.50
45969;DHT22;31676;40.444;-3.668;2022-08-21T04:28:51;27.60;67.40
45969;DHT22;31676;40.444;-3.668;2022-08-21T04:31:17;27.70;67.50
45969;DHT22;31676;40.444;-3.668;2022-08-21T04:33:43;27.70;67.60
45969;DHT22;31676;40.444;-3.668;2022-08-21T04:36:10;27.70;67.50
45969;DHT22;31676;40.444;-3.668;2022-08-21T04:38:36;27.70;67.60
45969;DHT22;31676;40.444;-3.668;2022-08-21T04:41:02;27.70;67.50
45969;DHT22;31676;40.444;-3.668;2022-08-21T04:43:28;27.70;67.50
45969;DHT22;31676;40.444;-3.668;2022-08-21T04:45:53;27.60;67.50
45969;DHT22;31676;40.444;-3.668;2022-08-21T04:48:20;27.60;67.50
45969;DHT22;31676;40.444;-3.668;2022-08-21T04:50:49;27.70;67.50
45969;DHT22;31676;40.444;-3.668;2022-08-21T04:53:16;27.70;67.50
45969;DHT22;31676;40.444;-3.668;2022-08-21T04:55:43;27.60;67.50
45969;DHT22;31676;40.444;-3.668;2022-08-21T04:58:10;27.60;67.60
45969;DHT22;31676;40.444;-3.668;2022-08-21T05:00:37;27.70;67.60
45969;DHT22;31676;40.444;-3.668;2022-08-21T05:03:03;27.60;67.50
45969;DHT22;31676;40.444;-3.668;2022-08-21T05:05:29;27.60;67.50
45969;DHT22;31676;40.444;-3.668;2022-08-21T05:07:55;27.60;67.50
45969;DHT22;31676;40.444;-3.668;2022-08-21T05:10:22;27.70;67.60
45969;DHT22;31676;40.444;-3.668;2022-08-21T05:12:50;27.70;67.60
45969;DHT22;31676;40.444;-3.668;2022-08-21T05:15:15;27.70;67.60
45969;DHT22;31676;40.444;-3.668;2022-08-21T05:17:42;27.60;67.60
45969;DHT22;31676;40.444;-3.668;2022-08-21T05:20:08;27.70;67.60
45969;DHT22;31676;40.444;-3.668;2022-08-21T05:22:34;27.60;68.20
45969;DHT22;31676;40.444;-3.668;2022-08-21T05:25:00;27.60;67.50
45969;DHT22;31676;40.444;-3.668;2022-08-21T05:27:26;27.60;67.50
45969;DHT22;31676;40.444;-3.668;2022-08-21T05:29:55;27.60;67.50
45969;DHT22;31676;40.444;-3.668;2022-08-21T05:32:21;27.60;67.50
45969;DHT22;31676;40.444;-3.668;2022-08-21T05:34:47;27.60;67.50
45969;DHT22;31676;40.444;-3.668;2022-08-21T05:37:12;27.60;67.60
45969;DHT22;31676;40.444;-3.668;2022-08-21T05:39:38;27.80;67.70
45969;DHT22;31676;40.444;-3.668;2022-08-21T05:42:04;27.60;67.60
45969;DHT22;31676;40.444;-3.668;2022-08-21T05:44:30;27.60;67.60
45969;DHT22;31676;40.444;-3.668;2022-08-21T05:47:02;27.60;67.50
45969;DHT22;31676;40.444;-3.668;2022-08-21T05:49:28;27.60;67.60
45969;DHT22;31676;40.444;-3.668;2022-08-21T05:51:53;27.60;67.60
45969;DHT22;31676;40.444;-3.668;2022-08-21T05:54:19;27.60;67.60
45969;DHT22;31676;40.444;-3.668;2022-08-21T05:56:45;27.50;67.40
45969;DHT22;31676;40.444;-3.668;2022-08-21T05:59:10;27.60;67.60
45969;DHT22;31676;40.444;-3.668;2022-08-21T06:01:36;27.60;67.60
45969;DHT22;31676;40.444;-3.668;2022-08-21T06:04:02;27.60;67.60
45969;DHT22;31676;40.444;-3.668;2022-08-21T06:06:28;27.60;67.60
45969;DHT22;31676;40.444;-3.668;2022-08-21T06:08:53;27.60;67.60
45969;DHT22;31676;40.444;-3.668;2022-08-21T06:11:19;27.60;67.60
45969;DHT22;31676;40.444;-3.668;2022-08-21T06:13:45;27.60;67.60
45969;DHT22;31676;40.444;-3.668;2022-08-21T06:16:12;27.60;67.60
45969;DHT22;31676;40.444;-3.668;2022-08-21T06:18:39;27.60;67.60
45969;DHT22;31676;40.444;-3.668;2022-08-21T06:21:05;27.60;67.60
45969;DHT22;31676;40.444;-3.668;2022-08-21T06:23:31;27.60;67.60
45969;DHT22;31676;40.444;-3.668;2022-08-21T06:25:57;27.60;67.60
45969;DHT22;31676;40.444;-3.668;2022-08-21T06:28:22;27.60;67.60
45969;DHT22;31676;40.444;-3.668;2022-08-21T06:30:48;27.60;67.60
45969;DHT22;31676;40.444;-3.668;2022-08-21T06:33:14;27.60;67.60
45969;DHT22;31676;40.444;-3.668;2022-08-21T06:35:39;27.60;67.60
45969;DHT22;31676;40.444;-3.668;2022-08-21T06:38:05;27.60;67.60
45969;DHT22;31676;40.444;-3.668;2022-08-21T06:40:31;27.60;67.60
45969;DHT22;31676;40.444;-3.668;2022-08-21T06:42:57;27.60;67.60
45969;DHT22;31676;40.444;-3.668;2022-08-21T06:45:23;27.60;67.60
45969;DHT22;31676;40.444;-3.668;2022-08-21T06:47:49;27.60;67.60
45969;DHT22;31676;40.444;-3.668;2022-08-21T06:50:14;27.60;67.60
45969;DHT22;31676;40.444;-3.668;2022-08-21T06:52:40;27.60;67.60
45969;DHT22;31676;40.444;-3.668;2022-08-21T06:55:07;27.60;67.60
45969;DHT22;31676;40.444;-3.668;2022-08-21T06:57:33;27.60;67.60
45969;DHT22;31676;40.444;-3.668;2022-08-21T06:59:59;27.60;67.60
45969;DHT22;31676;40.444;-3.668;2022-08-21T07:02:24;27.60;67.60
45969;DHT22;31676;40.444;-3.668;2022-08-21T07:04:50;27.60;67.60
45969;DHT22;31676;40.444;-3.668;2022-08-21T07:07:16;27.60;67.60
45969;DHT22;31676;40.444;-3.668;2022-08-21T07:09:42;27.60;67.60
45969;DHT22;31676;40.444;-3.668;2022-08-21T07:12:08;27.60;67.60
45969;DHT22;31676;40.444;-3.668;2022-08-21T07:14:33;27.60;67.60
45969;DHT22;31676;40.444;-3.668;2022-08-21T07:16:59;27.60;67.60
45969;DHT22;31676;40.444;-3.668;2022-08-21T07:19:25;27.60;67.60
45969;DHT22;31676;40.444;-3.668;2022-08-21T07:21:52;27.60;67.60
45969;DHT22;31676;40.444;-3.668;2022-08-21T07:24:18;27.60;67.60
45969;DHT22;31676;40.444;-3.668;2022-08-21T07:26:44;27.60;67.60
45969;DHT22;31676;40.444;-3.668;2022-08-21T07:29:09;27.60;67.60
45969;DHT22;31676;40.444;-3.668;2022-08-21T07:31:35;27.60;67.60
45969;DHT22;31676;40.444;-3.668;2022-08-21T07:34:01;27.60;67.60
45969;DHT22;31676;40.444;-3.668;2022-08-21T07:36:27;27.60;67.60
45969;DHT22;31676;40.444;-3.668;2022-08-21T07:38:53;27.60;67.60
45969;DHT22;31676;40.444;-3.668;2022-08-21T07:41:20;27.60;67.60
45969;DHT22;31676;40.444;-3.668;2022-08-21T07:43:46;27.60;67.60
45969;DHT22;31676;40.444;-3.668;2022-08-21T07:46:12;27.60;67.60
45969;DHT22;31676;40.444;-3.668;2022-08-21T07:48:38;27.60;67.60
45969;DHT22;31676;40.444;-3.668;2022-08-21T07:51:13;27.60;67.60
45969;DHT22;31676;40.444;-3.668;2022-08-21T07:53:39;27.60;67.60
45969;DHT22;31676;40.444;-3.668;2022-08-21T07:56:05;27.60;67.60
45969;DHT22;31676;40.444;-3.668;2022-08-21T07:58:31;27.60;67.60
45969;DHT22;31676;40.444;-3.668;2022-08-21T08:00:57;27.60;67.60
45969;DHT22;31676;40.444;-3.668;2022-08-21T08:03:23;27.60;67.60
45969;DHT22;31676;40.444;-3.668;2022-08-21T08:05:49;27.60;67.60
45969;DHT22;31676;40.444;-3.668;2022-08-21T08:08:15;27.60;67.60
45969;DHT22;31676;40.444;-3.668;2022-08-21T08:10:40;27.60;67.60
45969;DHT22;31676;40.444;-3.668;2022-08-21T08:13:06;27.60;67.60
45969;DHT22;31676;40.444;-3.668;2022-08-21T08:15:32;27.60;67.60
45969;DHT22;31676;40.444;-3.668;2022-08-21T08:17:58;27.70;67.70
45969;DHT22;31676;40.444;-3.668;2022-08-21T08:20:24;27.60;67.60
45969;DHT22;31676;40.444;-3.668;2022-08-21T08:22:51;27.60;67.60
45969;DHT22;31676;40.444;-3.668;2022-08-21T08:25:18;27.60;67.60
45969;DHT22;31676;40.444;-3.668;2022-08-21T08:27:44;27.60;67.60
45969;DHT22;31676;40.444;-3.668;2022-08-21T08:30:10;27.60;67.60
45969;DHT22;31676;40.444;-3.668;2022-08-21T08:32:37;27.60;67.60
45969;DHT22;31676;40.444;-3.668;2022-08-21T08:35:03;27.60;67.60
45969;DHT22;31676;40.444;-3.668;2022-08-21T08:37:28;27.60;67.60
45969;DHT22;31676;40.444;-3.668;2022-08-21T08:39:54;27.60;67.60
45969;DHT22;31676;40.444;-3.668;2022-08-21T08:44:45;27.60;67.60
45969;DHT22;31676;40.444;-3.668;2022-08-21T08:47:13;27.60;67.60
45969;DHT22;31676;40.444;-3.668;2022-08-21T08:49:47;27.60;67.60
45969;DHT22;31676;40.444;-3.668;2022-08-21T08:52:22;27.60;67.60
45969;DHT22;31676;40.444;-3.668;2022-08-21T08:55:02;27.60;67.60
45969;DHT22;31676;40.444;-3.668;2022-08-21T08:57:27;27.60;67.60
45969;DHT22;31676;40.444;-3.668;2022-08-21T08:59:54;27.60;67.60
45969;DHT22;31676;40.444;-3.668;2022-08-21T09:02:21;27.60;67.60
45969;DHT22;31676;40.444;-3.668;2022-08-21T09:04:48;27.60;67.60
45969;DHT22;31676;40.444;-3.668;2022-08-21T09:20:41;27.60;67.60
45969;DHT22;31676;40.444;-3.668;2022-08-21T09:23:33;27.60;67.60
45969;DHT22;31676;40.444;-3.668;2022-08-21T09:26:08;27.60;67.60
45969;DHT22;31676;40.444;-3.668;2022-08-21T09:28:37;27.60;67.60
45969;DHT22;31676;40.444;-3.668;2022-08-21T09:31:05;27.60;67.60
45969;DHT22;31676;40.444;-3.668;2022-08-21T09:33:32;27.60;67.60
45969;DHT22;31676;40.444;-3.668;2022-08-21T09:35:58;27.60;67.60
45969;DHT22;31676;40.444;-3.668;2022-08-21T09:38:27;27.60;67.60
45969;DHT22;31676;40.444;-3.668;2022-08-21T09:40:57;27.60;67.50
45969;DHT22;31676;40.444;-3.668;2022-08-21T09:43:23;27.60;67.60
45969;DHT22;31676;40.444;-3.668;2022-08-21T09:48:39;27.60;67.60
45969;DHT22;31676;40.444;-3.668;2022-08-21T09:51:07;27.60;67.60
45969;DHT22;31676;40.444;-3.668;2022-08-21T09:53:34;27.60;67.60
45969;DHT22;31676;40.444;-3.668;2022-08-21T09:56:04;27.60;67.50
45969;DHT22;31676;40.444;-3.668;2022-08-21T09:58:49;27.60;67.50
45969;DHT22;31676;40.444;-3.668;2022-08-21T10:01:17;27.60;67.50
45969;DHT22;31676;40.444;-3.668;2022-08-21T10:03:43;27.60;67.50
45969;DHT22;31676;40.444;-3.668;2022-08-21T10:06:09;27.60;67.60
45969;DHT22;31676;40.444;-3.668;2022-08-21T10:08:37;27.60;67.50
45969;DHT22;31676;40.444;-3.668;2022-08-21T10:11:04;27.60;67.50
45969;DHT22;31676;40.444;-3.668;2022-08-21T10:14:05;27.60;67.50
45969;DHT22;31676;40.444;-3.668;2022-08-21T10:19:07;27.70;67.60
45969;DHT22;31676;40.444;-3.668;2022-08-21T10:27:02;27.70;67.60
45969;DHT22;31676;40.444;-3.668;2022-08-21T10:45:09;27.70;67.50
45969;DHT22;31676;40.444;-3.668;2022-08-21T10:55:17;27.70;67.50
45969;DHT22;31676;40.444;-3.668;2022-08-21T10:57:51;27.70;67.50
45969;DHT22;31676;40.444;-3.668;2022-08-21T11:00:21;27.70;67.50
45969;DHT22;31676;40.444;-3.668;2022-08-21T11:05:28;27.70;67.50
45969;DHT22;31676;40.444;-3.668;2022-08-21T11:08:12;27.70;67.50
45969;DHT22;31676;40.444;-3.668;2022-08-21T11:13:08;27.70;67.50
45969;DHT22;31676;40.444;-3.668;2022-08-21T11:25:59;27.70;67.40
45969;DHT22;31676;40.444;-3.668;2022-08-21T11:29:08;27.70;67.40
45969;DHT22;31676;40.444;-3.668;2022-08-21T11:36:15;27.80;67.50
45969;DHT22;31676;40.444;-3.668;2022-08-21T11:38:45;27.80;67.50
45969;DHT22;31676;40.444;-3.668;2022-08-21T11:41:22;27.80;67.40
45969;DHT22;31676;40.444;-3.668;2022-08-21T11:44:08;27.80;67.50
45969;DHT22;31676;40.444;-3.668;2022-08-21T11:51:37;27.80;67.40
45969;DHT22;31676;40.444;-3.668;2022-08-21T11:54:09;27.70;67.40
45969;DHT22;31676;40.444;-3.668;2022-08-21T11:56:41;27.70;67.40
45969;DHT22;31676;40.444;-3.668;2022-08-21T11:59:11;27.80;67.40
45969;DHT22;31676;40.444;-3.668;2022-08-21T12:01:40;27.80;67.40
45969;DHT22;31676;40.444;-3.668;2022-08-21T12:04:16;27.80;67.40
45969;DHT22;31676;40.444;-3.668;2022-08-21T12:06:42;27.80;67.40
45969;DHT22;31676;40.444;-3.668;2022-08-21T12:09:30;27.80;67.40
45969;DHT22;31676;40.444;-3.668;2022-08-21T12:12:05;27.80;67.40
45969;DHT22;31676;40.444;-3.668;2022-08-21T12:17:06;27.80;67.40
45969;DHT22;31676;40.444;-3.668;2022-08-21T12:19:33;27.80;67.40
45969;DHT22;31676;40.444;-3.668;2022-08-21T12:24:36;27.80;67.40
45969;DHT22;31676;40.444;-3.668;2022-08-21T12:27:13;27.80;67.40
45969;DHT22;31676;40.444;-3.668;2022-08-21T12:29:54;27.80;67.40
45969;DHT22;31676;40.444;-3.668;2022-08-21T12:32:28;27.80;67.40
45969;DHT22;31676;40.444;-3.668;2022-08-21T12:35:08;27.80;67.40
45969;DHT22;31676;40.444;-3.668;2022-08-21T12:37:41;27.80;67.30
45969;DHT22;31676;40.444;-3.668;2022-08-21T12:40:18;27.80;67.40
45969;DHT22;31676;40.444;-3.668;2022-08-21T12:42:46;27.80;67.30
45969;DHT22;31676;40.444;-3.668;2022-08-21T12:45:19;27.80;67.30
45969;DHT22;31676;40.444;-3.668;2022-08-21T12:47:51;27.80;67.40
45969;DHT22;31676;40.444;-3.668;2022-08-21T12:53:06;27.90;68.00
45969;DHT22;31676;40.444;-3.668;2022-08-21T12:55:33;27.80;67.30
45969;DHT22;31676;40.444;-3.668;2022-08-21T12:57:59;27.80;67.30
45969;DHT22;31676;40.444;-3.668;2022-08-21T13:00:28;27.90;67.40
45969;DHT22;31676;40.444;-3.668;2022-08-21T13:02:53;27.90;67.30
45969;DHT22;31676;40.444;-3.668;2022-08-21T13:05:35;27.90;67.30
45969;DHT22;31676;40.444;-3.668;2022-08-21T13:08:05;27.90;67.40
45969;DHT22;31676;40.444;-3.668;2022-08-21T13:10:32;27.90;67.40
45969;DHT22;31676;40.444;-3.668;2022-08-21T13:13:02;27.90;67.30
45969;DHT22;31676;40.444;-3.668;2022-08-21T13:15:30;27.90;67.30
45969;DHT22;31676;40.444;-3.668;2022-08-21T13:17:56;27.90;67.30
45969;DHT22;31676;40.444;-3.668;2022-08-21T13:20:29;27.90;67.30
45969;DHT22;31676;40.444;-3.668;2022-08-21T13:22:55;27.90;67.30
45969;DHT22;31676;40.444;-3.668;2022-08-21T13:25:21;27.90;67.30
45969;DHT22;31676;40.444;-3.668;2022-08-21T13:27:57;27.90;67.30
45969;DHT22;31676;40.444;-3.668;2022-08-21T13:30:23;27.90;67.90
45969;DHT22;31676;40.444;-3.668;2022-08-21T13:32:55;27.90;67.30
45969;DHT22;31676;40.444;-3.668;2022-08-21T13:35:24;27.90;67.30
45969;DHT22;31676;40.444;-3.668;2022-08-21T13:37:51;27.90;67.30
45969;DHT22;31676;40.444;-3.668;2022-08-21T13:40:25;27.90;67.30
45969;DHT22;31676;40.444;-3.668;2022-08-21T13:42:51;27.90;67.30
45969;DHT22;31676;40.444;-3.668;2022-08-21T13:45:27;27.90;67.30
45969;DHT22;31676;40.444;-3.668;2022-08-21T13:47:53;27.90;67.30
45969;DHT22;31676;40.444;-3.668;2022-08-21T13:50:20;27.90;67.30
45969;DHT22;31676;40.444;-3.668;2022-08-21T13:52:58;27.90;67.30
45969;DHT22;31676;40.444;-3.668;2022-08-21T13:55:24;27.90;67.30
45969;DHT22;31676;40.444;-3.668;2022-08-21T13:58:01;28.00;67.30
45969;DHT22;31676;40.444;-3.668;2022-08-21T14:00:27;28.00;67.30
45969;DHT22;31676;40.444;-3.668;2022-08-21T14:02:54;28.00;67.30
45969;DHT22;31676;40.444;-3.668;2022-08-21T14:05:25;28.00;67.30
45969;DHT22;31676;40.444;-3.668;2022-08-21T14:07:56;27.90;67.30
45969;DHT22;31676;40.444;-3.668;2022-08-21T14:10:23;28.00;67.30
45969;DHT22;31676;40.444;-3.668;2022-08-21T14:15:22;28.00;67.30
45969;DHT22;31676;40.444;-3.668;2022-08-21T14:17:48;27.90;67.20
45969;DHT22;31676;40.444;-3.668;2022-08-21T14:22:52;28.00;67.30
45969;DHT22;31676;40.444;-3.668;2022-08-21T14:27:51;28.00;67.30
45969;DHT22;31676;40.444;-3.668;2022-08-21T14:30:21;28.00;67.30
45969;DHT22;31676;40.444;-3.668;2022-08-21T14:32:47;28.00;67.30
45969;DHT22;31676;40.444;-3.668;2022-08-21T14:35:13;28.00;67.30
45969;DHT22;31676;40.444;-3.668;2022-08-21T14:37:43;28.00;67.30
45969;DHT22;31676;40.444;-3.668;2022-08-21T14:40:09;28.00;67.30
45969;DHT22;31676;40.444;-3.668;2022-08-21T14:42:35;28.00;67.20
45969;DHT22;31676;40.444;-3.668;2022-08-21T14:45:05;28.00;67.20
45969;DHT22;31676;40.444;-3.668;2022-08-21T14:47:32;28.00;67.20
45969;DHT22;31676;40.444;-3.668;2022-08-21T14:49:57;28.00;67.20
45969;DHT22;31676;40.444;-3.668;2022-08-21T14:52:23;28.00;67.30
45969;DHT22;31676;40.444;-3.668;2022-08-21T14:54:49;28.00;67.20
45969;DHT22;31676;40.444;-3.668;2022-08-21T14:57:15;28.00;67.20
45969;DHT22;31676;40.444;-3.668;2022-08-21T14:59:41;28.00;67.20
45969;DHT22;31676;40.444;-3.668;2022-08-21T15:02:07;28.10;67.30
45969;DHT22;31676;40.444;-3.668;2022-08-21T15:04:33;28.00;67.20
45969;DHT22;31676;40.444;-3.668;2022-08-21T15:07:00;28.10;67.30
45969;DHT22;31676;40.444;-3.668;2022-08-21T15:09:25;28.10;67.30
45969;DHT22;31676;40.444;-3.668;2022-08-21T15:11:55;28.10;67.30
45969;DHT22;31676;40.444;-3.668;2022-08-21T15:14:21;28.10;67.30
45969;DHT22;31676;40.444;-3.668;2022-08-21T15:16:48;28.10;67.30
45969;DHT22;31676;40.444;-3.668;2022-08-21T15:19:14;28.10;67.30
45969;DHT22;31676;40.444;-3.668;2022-08-21T15:21:39;28.10;67.20
45969;DHT22;31676;40.444;-3.668;2022-08-21T15:24:05;28.10;67.20
45969;DHT22;31676;40.444;-3.668;2022-08-21T15:26:31;28.10;67.30
45969;DHT22;31676;40.444;-3.668;2022-08-21T15:28:58;28.10;67.20
45969;DHT22;31676;40.444;-3.668;2022-08-21T15:31:24;28.10;67.30
45969;DHT22;31676;40.444;-3.668;2022-08-21T15:33:50;28.10;67.20
45969;DHT22;31676;40.444;-3.668;2022-08-21T15:36:16;28.10;67.20
45969;DHT22;31676;40.444;-3.668;2022-08-21T15:38:43;28.10;67.20
45969;DHT22;31676;40.444;-3.668;2022-08-21T15:41:09;28.10;67.20
45969;DHT22;31676;40.444;-3.668;2022-08-21T15:43:37;28.20;67.30
45969;DHT22;31676;40.444;-3.668;2022-08-21T15:46:04;28.10;67.20
45969;DHT22;31676;40.444;-3.668;2022-08-21T15:48:31;28.20;67.30
45969;DHT22;31676;40.444;-3.668;2022-08-21T15:50:56;28.10;67.20
45969;DHT22;31676;40.444;-3.668;2022-08-21T15:53:22;28.20;67.30
45969;DHT22;31676;40.444;-3.668;2022-08-21T15:55:48;28.20;67.30
45969;DHT22;31676;40.444;-3.668;2022-08-21T15:58:14;28.20;67.30
45969;DHT22;31676;40.444;-3.668;2022-08-21T16:00:40;28.20;67.30
45969;DHT22;31676;40.444;-3.668;2022-08-21T16:03:09;28.20;67.30
45969;DHT22;31676;40.444;-3.668;2022-08-21T16:05:39;28.20;67.30
45969;DHT22;31676;40.444;-3.668;2022-08-21T16:08:05;28.20;67.20
45969;DHT22;31676;40.444;-3.668;2022-08-21T16:10:30;28.20;67.20
45969;DHT22;31676;40.444;-3.668;2022-08-21T16:13:00;28.20;67.20
45969;DHT22;31676;40.444;-3.668;2022-08-21T16:15:27;28.20;67.30
45969;DHT22;31676;40.444;-3.668;2022-08-21T16:17:53;28.20;67.20
45969;DHT22;31676;40.444;-3.668;2022-08-21T16:20:21;28.20;67.20
45969;DHT22;31676;40.444;-3.668;2022-08-21T16:22:47;28.20;67.20
45969;DHT22;31676;40.444;-3.668;2022-08-21T16:25:13;28.20;67.20
45969;DHT22;31676;40.444;-3.668;2022-08-21T16:27:40;28.30;67.20
45969;DHT22;31676;40.444;-3.668;2022-08-21T16:30:06;28.30;67.20
45969;DHT22;31676;40.444;-3.668;2022-08-21T16:32:32;28.30;67.20
45969;DHT22;31676;40.444;-3.668;2022-08-21T16:34:59;28.30;67.20
45969;DHT22;31676;40.444;-3.668;2022-08-21T16:37:25;28.30;67.20
45969;DHT22;31676;40.444;-3.668;2022-08-21T16:39:51;28.30;67.20
45969;DHT22;31676;40.444;-3.668;2022-08-21T16:42:18;28.30;67.20
45969;DHT22;31676;40.444;-3.668;2022-08-21T16:44:46;28.30;67.20
45969;DHT22;31676;40.444;-3.668;2022-08-21T16:47:11;28.30;67.10
45969;DHT22;31676;40.444;-3.668;2022-08-21T16:49:37;28.30;67.10